Updated14/12/2019 6:09am 
 

Nearby Airport METAR Reports

 

KVSF - Springfield, Vermont, USA
Distance from station: WSW 8mi, 12km
Updated: 12/14/2019 6:04am
Mist, Overcast
Mist, Overcast
 Wind from S
Wind: S 5 mph , 7 km/h
Temperature: 32°F , 0°C
Wind Chill: 27°F , -3°C
Dew Point: 32°F , 0°C
Humidity: 100%
Barometer: 29.73 inHg , 1006.8 hPa
Summary: Mist
Clouds: Overcast
Visibility: 1 3/4 miles , 2.8 km
Cloud details: Partly cloudy 300 ft
Partly cloudy 1100 ft
Overcast 2000 ft
2019/12/14 11:04 KVSF 141104Z AUTO 17004KT 1 3/4SM UP BR SCT003 SCT011 OVC020 00/00 A2973 RMK AO2 PRESFR P0004 T00000000
KLEB - Lebanon, New Hampshire, USA
Distance from station: N 18mi, 29km
Updated: 12/14/2019 6:07am
Rain, Mist, Overcast
Rain, Mist, Overcast
 Wind from N
Wind: N 3 mph , 6 km/h
Temperature: 36°F , 2°C
Dew Point: 34°F , 1°C
Humidity: 93%
Barometer: 29.74 inHg , 1007.1 hPa
Summary: Rain, Mist
Clouds: Overcast
Visibility: 2 1/2 miles , 4 km
Cloud details: Mostly cloudy 100 ft
Overcast 1700 ft
2019/12/14 11:07 KLEB 141107Z 01003KT 2 1/2SM RA BR BKN001 OVC017 02/01 A2974 RMK AO2 P0004 T00170006
KRUT - Rutland State, Vermont, USA
Distance from station: WNW 31mi, 50km
Updated: 12/14/2019 5:56am
Rain, Overcast
Rain, Overcast
 Wind from SE
Wind: SE 16 mph , 26 km/h
Temperature: 43°F , 6°C
Wind Chill: 35°F , 2°C
Dew Point: 43°F , 6°C
Humidity: 100%
Barometer: 29.68 inHg , 1005.1 hPa
Summary: Rain
Clouds: Overcast
Visibility: 8 miles , 13 km
Cloud details: Mostly cloudy 4600 ft
Mostly cloudy 5500 ft
Overcast 7000 ft
2019/12/14 10:56 KRUT 141056Z AUTO 13014KT 8SM RA BKN046 BKN055 OVC070 06/06 A2968 RMK AO2 PK WND 11028/1034 SLP054 P0009 T00560056 $
 
KEEN - Keene/Dillant, New Hampshire, USA
Distance from station: S 34mi, 55km
Updated: 12/14/2019 5:56am
Light rain, Mist, Overcast
Light rain, Mist, Overcast
 Wind from NW
Wind: NW 3 mph , 6 km/h
Temperature: 43°F , 6°C
Dew Point: 41°F , 5°C
Humidity: 93%
Barometer: 29.68 inHg , 1005.1 hPa
Summary: Light rain, Mist
Clouds: Overcast
Visibility: 5 miles , 8 km
Cloud details: Overcast 1000 ft
2019/12/14 10:56 KEEN 141056Z AUTO 31003KT 5SM -RA BR OVC010 06/05 A2968 RMK AO2 CIG 006V014 SLP057 P0017 T00610050 $
K1P1 - Plymouth, New Hampshire, USA
Distance from station: NE 42mi, 67km
Updated: 12/14/2019 5:55am
Light snow, Overcast
Light snow, Overcast
 Wind from calm
Wind: Calm
Temperature: 32°F , 0°C
Dew Point: 32°F , 0°C
Humidity: 100%
Barometer: 29.82 inHg , 1009.8 hPa
Summary: Light Snow
Clouds: Overcast
Visibility: 1 1/2 miles , 2.4 km
Cloud details: Overcast 1700 ft
2019/12/14 10:55 K1P1 141055Z AUTO 00000KT 1 1/2SM -SN OVC017 00/00 A2982 RMK AO2 P0010 T00040004
KAFN - Jaffrey, New Hampshire, USA
Distance from station: SSE 44mi, 70km
Updated: 12/14/2019 6:06am
Rain, Mist, Overcast
Rain, Mist, Overcast
 Wind from varies
Wind: varies 3 mph , 6 km/h
Temperature: 39°F , 4°C
Dew Point: 37°F , 3°C
Humidity: 93%
Barometer: 29.69 inHg , 1005.4 hPa
Summary: Rain, Mist
Clouds: Overcast
Visibility: 4 miles , 6 km
Cloud details: Mostly cloudy 300 ft
Overcast 1100 ft
2019/12/14 11:06 KAFN 141106Z AUTO VRB03KT 4SM RA BR BKN003 OVC011 04/03 A2969 RMK AO2 P0004 T00390028
 
KCON - Concord, New Hampshire, USA
Distance from station: ESE 45mi, 73km
Updated: 12/14/2019 5:51am
Heavy rain, Mist, Overcast
Heavy rain, Mist, Overcast
 Wind from NE
Wind: NE 8 mph , 13 km/h
Temperature: 43°F , 6°C
Wind Chill: 38°F , 3°C
Dew Point: 41°F , 5°C
Humidity: 93%
Barometer: 29.76 inHg , 1007.8 hPa
Summary: Heavy rain, Mist
Clouds: Overcast
Visibility: 3 miles , 5 km
Cloud details: Few Clouds 1000 ft
Partly cloudy 1400 ft
Overcast 2200 ft
2019/12/14 10:51 KCON 141051Z AUTO 04007KT 3SM +RA BR FEW010 SCT014 OVC022 06/05 A2976 RMK AO2 SLP080 P0025 T00610050
KLCI - Laconia Muni, New Hampshire, USA
Distance from station: ENE 49mi, 80km
Updated: 12/14/2019 5:56am
Light rain, Mist, Overcast
Light rain, Mist, Overcast
 Wind from NE
Wind: NE 10 mph , 17 km/h, Gust: 17 mph , 28 km/h
Temperature: 39°F , 4°C
Wind Chill: 32°F , 0°C
Dew Point: 39°F , 4°C
Humidity: 100%
Barometer: 29.81 inHg , 1009.5 hPa
Summary: Light rain, Mist
Clouds: Overcast
Visibility: 3 miles , 5 km
Cloud details: Mostly cloudy 700 ft
Mostly cloudy 1100 ft
Overcast 4200 ft
2019/12/14 10:56 KLCI 141056Z AUTO 05009G15KT 3SM -RA BR BKN007 BKN011 OVC042 04/04 A2981 RMK AO2 PRESFR SLP098 P0025 T00390039
KDDH - Bennington, Vermont, USA
Distance from station: SW 55mi, 89km
Updated: 12/14/2019 5:54am
Rain, Overcast
Rain, Overcast
 Wind from E
Wind: E 8 mph , 13 km/h
Temperature: 48°F , 9°C
Wind Chill: 44°F , 7°C
Dew Point: 43°F , 6°C
Humidity: 82%
Barometer: 29.63 inHg , 1003.4 hPa
Summary: Rain
Clouds: Overcast
Visibility: 5 miles , 8 km
Cloud details: Mostly cloudy 6000 ft
Overcast 8000 ft
2019/12/14 10:54 KDDH 141054Z AUTO 09007KT 060V140 5SM RA BKN060 OVC080 09/06 A2963 RMK AO2 SLP038 P0007 T00890061
 
K6B0 - Middlebury, Vermont, USA
Distance from station: NW 56mi, 90km
Updated: 12/14/2019 5:56am
Drizzle, Overcast
Drizzle, Overcast
 Wind from NNE
Wind: NNE 6 mph , 9 km/h
Temperature: 37°F , 3°C
Wind Chill: 32°F , 0°C
Dew Point: 37°F , 3°C
Humidity: 100%
Barometer: 29.72 inHg , 1006.4 hPa
Summary: Drizzle
Clouds: Overcast
Visibility: 7 miles , 11 km
Cloud details: Mostly cloudy 6000 ft
Overcast 7000 ft
2019/12/14 10:56 K6B0 141056Z AUTO 02005KT 7SM DZ BKN060 OVC070 03/03 A2972 RMK AO2 T00310026
KMHT - Manchester, New Hampshire, USA
Distance from station: ESE 56mi, 90km
Updated: 12/14/2019 5:53am
Rain, Mist, Overcast
Rain, Mist, Overcast
 Wind from NE
Wind: NE 13 mph , 20 km/h, Gust: 22 mph , 35 km/h
Temperature: 45°F , 7°C
Wind Chill: 39°F , 4°C
Dew Point: 43°F , 6°C
Humidity: 93%
Barometer: 29.71 inHg , 1006.1 hPa
Summary: Rain, Mist
Clouds: Overcast
Visibility: 3 miles , 5 km
Cloud details: Partly cloudy 600 ft
Overcast 2300 ft
2019/12/14 10:53 KMHT 141053Z 04011G19KT 3SM RA BR SCT006 OVC023 07/06 A2971 RMK AO2 SLP078 P0019 T00720061
KORE - Orange, Massachusetts, USA
Distance from station: S 56mi, 90km
Updated: 12/14/2019 5:52am
Rain, Mist, Overcast
Rain, Mist, Overcast
 Wind from WSW
Wind: WSW 9 mph , 15 km/h
Temperature: 43°F , 6°C
Wind Chill: 38°F , 3°C
Dew Point: 39°F , 4°C
Humidity: 87%
Barometer: 29.68 inHg , 1005.1 hPa
Summary: Rain, Mist
Clouds: Overcast
Visibility: 4 miles , 6 km
Cloud details: Mostly cloudy 900 ft
Overcast 1800 ft
2019/12/14 10:52 KORE 141052Z AUTO 24008KT 210V280 4SM RA BR BKN009 OVC018 06/04 A2968 RMK AO2 SLP055 P0025 T00610044
 
KMPV - Montpelier/Barre, Vermont, USA
Distance from station: N 58mi, 93km
Updated: 12/14/2019 5:57am
Mist, Overcast
Mist, Overcast
 Wind from S
Wind: S 5 mph , 7 km/h
Temperature: 32°F , 0°C
Wind Chill: 27°F , -3°C
Dew Point: 30°F , -1°C
Humidity: 93%
Barometer: 29.81 inHg , 1009.5 hPa
Summary: Mist
Clouds: Overcast
Visibility: 3 miles , 5 km
Cloud details: Mostly cloudy 900 ft
Overcast 1300 ft
2019/12/14 10:57 KMPV 141057Z AUTO 19004KT 3SM UP BR BKN009 OVC013 00/M01 A2981 RMK AO2 P0001 T00001006
KASH - Nashua/Boire Fld, New Hampshire, USA
Distance from station: SE 59mi, 95km
Updated: 12/14/2019 5:56am
Rain, Overcast
Rain, Overcast
 Wind from NNE
Wind: NNE 5 mph , 7 km/h
Temperature: 45°F , 7°C
Wind Chill: 42°F , 6°C
Dew Point: 45°F , 7°C
Humidity: 100%
Barometer: 29.72 inHg , 1006.4 hPa
Summary: Rain
Clouds: Overcast
Visibility: 7 miles , 11 km
Cloud details: Overcast 700 ft
2019/12/14 10:56 KASH 141056Z AUTO 03004KT 7SM RA OVC007 07/07 A2972 RMK AO2 CIG 004V010 SLP069 T00670067 PNO $
KAQW - North Adams, Massachusetts, USA
Distance from station: SW 62mi, 99km
Updated: 12/14/2019 5:52am
Rain, Mist, Overcast
Rain, Mist, Overcast
 Wind from ESE
Wind: ESE 13 mph , 20 km/h
Temperature: 46°F , 8°C
Wind Chill: 40°F , 4°C
Dew Point: 43°F , 6°C
Humidity: 87%
Barometer: 29.65 inHg , 1004.1 hPa
Summary: Rain, Mist
Clouds: Overcast
Visibility: 5 miles , 8 km
Cloud details: Few Clouds 2000 ft
Overcast 4300 ft
2019/12/14 10:52 KAQW 141052Z AUTO 12011KT 5SM RA BR FEW020 OVC043 08/06 A2965 RMK AO2 SLP044 P0015 T00780056 TSNO
 
KGFL - Glens Falls, New York, USA
Distance from station: W 63mi, 101km
Updated: 12/14/2019 5:53am
Light rain, Overcast
Light rain, Overcast
 Wind from N
Wind: N 10 mph , 17 km/h
Temperature: 37°F , 3°C
Wind Chill: 30°F , -1°C
Dew Point: 37°F , 3°C
Humidity: 100%
Barometer: 29.65 inHg , 1004.1 hPa
Summary: Light rain
Clouds: Overcast
Visibility: 7 miles , 11 km
Cloud details: Partly cloudy 2400 ft
Mostly cloudy 3400 ft
Overcast 7500 ft
2019/12/14 10:53 KGFL 141053Z AUTO 35009KT 7SM -RA SCT024 BKN034 OVC075 03/03 A2965 RMK AO2 PRESFR SLP047 P0003 T00330028
KFIT - Fitchburg, Massachusetts, USA
Distance from station: SSE 65mi, 105km
Updated: 12/14/2019 5:10am
Rain, Mist, Overcast
Rain, Mist, Overcast
 Wind from calm
Wind: Calm
Temperature: 43°F , 6°C
Dew Point: 39°F , 4°C
Humidity: 87%
Barometer: 29.75 inHg , 1007.5 hPa
Summary: Rain, Mist
Clouds: Overcast
Visibility: 2 1/2 miles , 4 km
Cloud details: Mostly cloudy 600 ft
Overcast 1100 ft
2019/12/14 10:10 KFIT 141010Z AUTO 00000KT 2 1/2SM RA BR BKN006 OVC011 06/04 A2975 RMK AO2 T00560039 PNO $
KDAW - Rochester, New Hampshire, USA
Distance from station: E 73mi, 118km
Updated: 12/14/2019 5:51am
Rain, Mist, Overcast
Rain, Mist, Overcast
 Wind from NE
Wind: NE 8 mph , 13 km/h
Temperature: 45°F , 7°C
Wind Chill: 41°F , 5°C
Dew Point: 43°F , 6°C
Humidity: 93%
Barometer: 29.79 inHg , 1008.8 hPa
Summary: Rain, Mist
Clouds: Overcast
Visibility: 4 miles , 6 km
Cloud details: Mostly cloudy 400 ft
Overcast 900 ft
2019/12/14 10:51 KDAW 141051Z AUTO 04007KT 4SM RA BR BKN004 OVC009 07/06 A2979 RMK AO2 SLP086 P0025 T00670056
 
K1V4 - St. Johnsbury, Vermont, USA
Distance from station: NNE 74mi, 119km
Updated: 12/14/2019 5:54am

 
Temperature: 34°F , 1°C
Dew Point: 32°F , 0°C
Humidity: 93%
Barometer: 29.80 inHg , 1009.1 hPa
2019/12/14 10:54 K1V4 141054Z AUTO 01/00 A2980 RMK AO1 PRESFR SLP101 P0003 T00060000
KLWM - Lawrence, Massachusetts, USA
Distance from station: SE 77mi, 124km
Updated: 12/14/2019 5:54am
Heavy rain, Mist, Overcast
Heavy rain, Mist, Overcast
 Wind from NE
Wind: NE 7 mph , 11 km/h
Temperature: 48°F , 9°C
Wind Chill: 45°F , 7°C
Dew Point: 46°F , 8°C
Humidity: 94%
Barometer: 29.74 inHg , 1007.1 hPa
Summary: Heavy rain, Mist
Clouds: Overcast
Visibility: 3 miles , 5 km
Cloud details: Overcast 700 ft
2019/12/14 10:54 KLWM 141054Z AUTO 05006KT 3SM +RA BR OVC007 09/08 A2974 RMK AO2 SLP070 P0030 T00890083



Flag Counter
free counter page views since 4/29/2009